Terminal Aerodrome Forecast
Issued by NWS Medford, OR

Home | Current Version | Previous Version | Text Only | Print | Product List | Glossary On
Versions: 1 2 3 4 5 6 7 8 9 10 11 12 13 14 15 16 17 18 19 20
000
FTUS46 KMFR 261120
TAFMFR
TAF
KMFR 261120Z 2612/2712 00000KT 1/4SM FG VV001
     FM261800 00000KT 2SM BR OVC002
     FM261900 VRB03KT P6SM SCT200
     FM270900 00000KT 2SM BR OVC002
     FM271100 00000KT 1/4SM FG VV001=

USA.gov is the U.S. government's official web portal to all federal, state and local government web resources and services.